createdAt,value
2022-09-25T00:00:48.610Z,14.65
2022-09-25T00:03:16.726Z,14.63
2022-09-25T00:05:45.682Z,14.54
2022-09-25T00:08:13.300Z,14.52
2022-09-25T00:10:48.872Z,14.61
2022-09-25T00:13:22.227Z,14.53
2022-09-25T00:15:51.606Z,14.55
2022-09-25T00:18:39.349Z,14.58
2022-09-25T00:21:06.919Z,14.52
2022-09-25T00:23:35.595Z,14.51
2022-09-25T00:26:05.870Z,14.53
2022-09-25T00:28:32.319Z,14.55
2022-09-25T00:30:58.792Z,14.54
2022-09-25T00:33:25.262Z,14.55
2022-09-25T00:35:51.695Z,14.50
2022-09-25T00:38:18.149Z,14.46
2022-09-25T00:40:44.744Z,14.47
2022-09-25T00:43:37.618Z,14.51
2022-09-25T00:46:10.275Z,14.51
2022-09-25T00:48:41.288Z,14.47
2022-09-25T00:51:07.774Z,14.47
2022-09-25T00:53:40.772Z,14.28
2022-09-25T00:56:09.531Z,14.23
2022-09-25T00:58:37.611Z,14.16
2022-09-25T01:01:04.591Z,14.09
2022-09-25T01:03:31.141Z,14.09
2022-09-25T01:06:00.253Z,14.10
2022-09-25T01:08:30.517Z,14.17
2022-09-25T01:10:57.524Z,14.24
2022-09-25T01:13:24.707Z,14.12
2022-09-25T01:16:09.569Z,14.07
2022-09-25T01:18:52.023Z,14.25
2022-09-25T01:21:47.741Z,14.16
2022-09-25T01:24:24.236Z,14.25
2022-09-25T01:27:17.895Z,14.24
2022-09-25T01:29:54.919Z,14.27
2022-09-25T01:32:32.384Z,14.26
2022-09-25T01:35:06.844Z,14.29
2022-09-25T01:37:48.109Z,14.18
2022-09-25T01:40:27.317Z,14.21
2022-09-25T01:43:39.022Z,14.31
2022-09-25T01:46:15.685Z,14.29
2022-09-25T01:48:47.115Z,14.26
2022-09-25T01:51:28.808Z,14.25
2022-09-25T01:53:59.710Z,14.29
2022-09-25T01:56:34.846Z,14.35
2022-09-25T01:59:16.923Z,14.35
2022-09-25T02:01:46.066Z,14.27
2022-09-25T02:04:22.598Z,14.37
2022-09-25T02:06:51.685Z,14.37
2022-09-25T02:09:56.279Z,14.30
2022-09-25T02:12:37.372Z,14.05
2022-09-25T02:15:24.669Z,14.16
2022-09-25T02:18:16.327Z,14.15
2022-09-25T02:20:46.226Z,14.07
2022-09-25T02:23:45.055Z,14.10
2022-09-25T02:26:17.803Z,14.14
2022-09-25T02:28:44.280Z,14.09
2022-09-25T02:31:13.762Z,14.12
2022-09-25T02:33:40.646Z,14.13
2022-09-25T02:36:18.658Z,14.18
2022-09-25T02:38:46.461Z,14.10
2022-09-25T02:41:29.416Z,14.14
2022-09-25T02:44:11.116Z,14.17
2022-09-25T02:47:06.554Z,14.06
2022-09-25T02:49:47.893Z,14.17
2022-09-25T02:52:23.578Z,14.21
2022-09-25T02:54:58.528Z,14.22
2022-09-25T02:57:37.418Z,14.08
2022-09-25T03:00:09.564Z,14.06
2022-09-25T03:02:40.620Z,13.84
2022-09-25T03:05:11.361Z,14.04
2022-09-25T03:07:57.256Z,13.99
2022-09-25T03:10:24.835Z,14.01
2022-09-25T03:12:53.556Z,13.99
2022-09-25T03:15:23.724Z,13.58
2022-09-25T03:17:52.156Z,13.63
2022-09-25T03:20:18.696Z,13.70
2022-09-25T03:22:45.186Z,13.55
2022-09-25T03:25:11.604Z,13.65
2022-09-25T03:27:38.074Z,13.67
2022-09-25T03:30:05.795Z,13.68
2022-09-25T03:32:34.665Z,13.70
2022-09-25T03:35:03.259Z,13.80
2022-09-25T03:37:32.354Z,13.82
2022-09-25T03:40:01.429Z,13.90
2022-09-25T03:42:28.293Z,13.86
2022-09-25T03:44:54.718Z,13.92
2022-09-25T03:47:21.159Z,13.94
2022-09-25T03:49:49.691Z,13.90
2022-09-25T03:52:16.162Z,13.96
2022-09-25T03:54:42.594Z,13.95
2022-09-25T03:57:09.109Z,13.98
2022-09-25T03:59:35.553Z,13.83
2022-09-25T04:02:02.326Z,13.85
2022-09-25T04:04:29.989Z,13.84
2022-09-25T04:06:56.888Z,13.93
2022-09-25T04:09:23.441Z,13.95
2022-09-25T04:11:50.061Z,13.92
2022-09-25T04:14:16.472Z,13.67
2022-09-25T04:16:43.303Z,13.77
2022-09-25T04:19:12.282Z,13.78
2022-09-25T04:21:38.759Z,13.91
2022-09-25T04:24:26.273Z,13.90
2022-09-25T04:26:53.640Z,13.66
2022-09-25T04:29:21.146Z,13.67
2022-09-25T04:32:07.555Z,13.79
2022-09-25T04:34:34.934Z,13.87
2022-09-25T04:37:01.798Z,13.90
2022-09-25T04:39:28.247Z,13.90
2022-09-25T04:41:55.518Z,13.85
2022-09-25T04:44:21.961Z,13.94
2022-09-25T04:46:48.468Z,13.91
2022-09-25T04:49:14.979Z,13.90
2022-09-25T04:51:41.405Z,13.88
2022-09-25T04:54:10.290Z,13.94
2022-09-25T04:56:39.022Z,13.98
2022-09-25T04:59:05.636Z,13.93
2022-09-25T05:01:32.141Z,13.88
2022-09-25T05:03:58.985Z,13.94
2022-09-25T05:06:26.909Z,13.95
2022-09-25T05:08:53.325Z,13.99
2022-09-25T05:11:19.778Z,13.83
2022-09-25T05:13:51.140Z,13.98
2022-09-25T05:16:17.716Z,13.97
2022-09-25T05:18:44.273Z,13.72
2022-09-25T05:21:13.007Z,13.77
2022-09-25T05:23:42.415Z,13.86
2022-09-25T05:26:13.712Z,13.81
2022-09-25T05:28:42.564Z,13.68
2022-09-25T05:31:11.301Z,13.90
2022-09-25T05:33:37.793Z,14.07
2022-09-25T05:36:06.597Z,14.22
2022-09-25T05:38:37.532Z,14.18
2022-09-25T05:41:08.384Z,13.66
2022-09-25T05:43:41.273Z,14.01
2022-09-25T05:46:07.812Z,14.12
2022-09-25T05:48:37.096Z,13.74
2022-09-25T05:51:04.175Z,13.83
2022-09-25T05:53:30.906Z,13.97
2022-09-25T05:56:01.774Z,13.99
2022-09-25T05:58:33.637Z,13.99
2022-09-25T06:01:05.647Z,14.09
2022-09-25T06:03:32.425Z,13.91
2022-09-25T06:06:00.058Z,13.90
2022-09-25T06:08:27.383Z,14.02
2022-09-25T06:10:57.178Z,14.27
2022-09-25T06:13:26.592Z,14.39
2022-09-25T06:15:53.353Z,14.44
2022-09-25T06:18:22.122Z,14.36
2022-09-25T06:20:49.632Z,14.52
2022-09-25T06:23:17.106Z,14.49
2022-09-25T06:25:43.884Z,14.62
2022-09-25T06:28:13.717Z,14.40
2022-09-25T06:30:42.647Z,14.48
2022-09-25T06:33:16.384Z,14.29
2022-09-25T06:35:43.952Z,14.24
2022-09-25T06:38:11.476Z,13.98
2022-09-25T06:40:40.945Z,14.06
2022-09-25T06:43:15.870Z,13.88
2022-09-25T06:45:47.793Z,14.03
2022-09-25T06:48:16.234Z,14.26
2022-09-25T06:50:44.816Z,13.97
2022-09-25T06:53:12.330Z,14.29
2022-09-25T06:55:38.858Z,14.25
2022-09-25T06:58:09.455Z,14.25
2022-09-25T07:00:35.967Z,14.15
2022-09-25T07:03:23.151Z,14.33
2022-09-25T07:05:54.684Z,14.02
2022-09-25T07:08:24.935Z,14.15
2022-09-25T07:10:53.842Z,14.38
2022-09-25T07:13:25.921Z,14.51
2022-09-25T07:15:53.107Z,14.82
2022-09-25T07:18:21.207Z,14.73
2022-09-25T07:20:50.919Z,14.59
2022-09-25T07:23:19.262Z,14.70
2022-09-25T07:25:46.849Z,14.23
2022-09-25T07:28:14.559Z,14.55
2022-09-25T07:30:42.069Z,14.66
2022-09-25T07:33:15.357Z,14.62
2022-09-25T07:35:44.148Z,15.17
2022-09-25T07:38:10.598Z,15.80
2022-09-25T07:40:37.145Z,16.05
2022-09-25T07:43:08.208Z,15.84
2022-09-25T07:45:34.683Z,15.64
2022-09-25T07:48:03.423Z,16.03
2022-09-25T07:50:34.189Z,16.96
2022-09-25T07:53:00.689Z,16.96
2022-09-25T07:55:30.003Z,17.16
2022-09-25T07:57:57.435Z,17.68
2022-09-25T08:00:26.423Z,17.55
2022-09-25T08:03:02.121Z,17.27
2022-09-25T08:05:34.214Z,16.93
2022-09-25T08:08:01.161Z,16.46
2022-09-25T08:10:27.622Z,16.71
2022-09-25T08:12:56.633Z,16.29
2022-09-25T08:15:25.802Z,16.73
2022-09-25T08:17:52.955Z,16.55
2022-09-25T08:20:20.001Z,16.77
2022-09-25T08:22:49.049Z,16.69
2022-09-25T08:25:15.593Z,17.37
2022-09-25T08:27:43.243Z,17.39
2022-09-25T08:30:14.067Z,17.29
2022-09-25T08:32:47.059Z,17.60
2022-09-25T08:35:18.472Z,16.88
2022-09-25T08:38:17.059Z,16.80
2022-09-25T08:40:54.960Z,17.00
2022-09-25T08:43:24.581Z,16.81
2022-09-25T08:46:11.516Z,16.47
2022-09-25T08:49:02.294Z,16.65
2022-09-25T08:51:43.990Z,16.82
2022-09-25T08:54:18.875Z,16.82
2022-09-25T08:56:54.601Z,17.00
2022-09-25T08:59:34.574Z,17.26
2022-09-25T09:02:10.395Z,17.13
2022-09-25T09:04:44.778Z,16.86
2022-09-25T09:07:29.960Z,16.89
2022-09-25T09:10:19.220Z,16.98
2022-09-25T09:12:56.434Z,16.88
2022-09-25T09:15:34.332Z,16.85
2022-09-25T09:18:14.908Z,16.82
2022-09-25T09:20:53.651Z,16.91
2022-09-25T09:23:27.372Z,16.97
2022-09-25T09:26:01.984Z,17.13
2022-09-25T09:29:03.422Z,17.55
2022-09-25T09:31:49.952Z,18.00
2022-09-25T09:34:18.511Z,20.17
2022-09-25T09:37:15.880Z,20.50
2022-09-25T09:40:17.715Z,19.98
2022-09-25T09:43:15.466Z,20.77
2022-09-25T09:45:48.459Z,20.91
2022-09-25T09:48:21.046Z,21.62
2022-09-25T09:50:54.309Z,23.77
2022-09-25T09:53:30.887Z,23.22
2022-09-25T09:56:14.566Z,22.59
2022-09-25T09:59:25.372Z,26.54
2022-09-25T10:02:20.391Z,23.82
2022-09-25T10:04:53.010Z,22.22
2022-09-25T10:07:26.941Z,23.65
2022-09-25T10:09:55.062Z,29.89
2022-09-25T10:12:36.022Z,36.04
2022-09-25T10:15:14.167Z,36.71
2022-09-25T10:17:45.218Z,36.21
2022-09-25T10:20:21.421Z,33.19
2022-09-25T10:22:53.518Z,30.47
2022-09-25T10:25:40.382Z,25.23
2022-09-25T10:28:46.684Z,23.62
2022-09-25T10:31:16.232Z,23.24
2022-09-25T10:33:42.840Z,23.63
2022-09-25T10:36:11.810Z,23.33
2022-09-25T10:38:53.514Z,23.72
2022-09-25T10:41:25.879Z,25.09
2022-09-25T10:43:54.829Z,24.62
2022-09-25T10:46:54.311Z,24.92
2022-09-25T10:49:40.869Z,23.39
2022-09-25T10:52:14.757Z,22.46
2022-09-25T10:54:45.115Z,21.69
2022-09-25T10:57:22.605Z,21.41
2022-09-25T10:59:54.675Z,21.24
2022-09-25T11:02:48.353Z,20.21
2022-09-25T11:05:19.235Z,21.15
2022-09-25T11:07:56.470Z,23.17
2022-09-25T11:10:27.463Z,23.46
2022-09-25T11:13:00.550Z,23.25
2022-09-25T11:15:29.560Z,22.37
2022-09-25T11:17:57.228Z,22.09
2022-09-25T11:20:34.708Z,21.88
2022-09-25T11:23:45.751Z,21.44
2022-09-25T11:26:20.783Z,20.90
2022-09-25T11:29:08.643Z,20.49
2022-09-25T11:31:38.209Z,19.79
2022-09-25T11:34:35.511Z,18.81
2022-09-25T11:37:26.197Z,17.51
2022-09-25T11:40:22.627Z,16.36
2022-09-25T11:43:00.467Z,16.13
2022-09-25T11:45:47.429Z,16.07
2022-09-25T11:48:37.230Z,15.34
2022-09-25T11:51:29.015Z,15.31
2022-09-25T11:54:33.348Z,15.40
2022-09-25T11:57:06.619Z,15.83
2022-09-25T11:59:55.515Z,16.29
2022-09-25T12:02:40.932Z,16.60
2022-09-25T12:05:32.440Z,16.93
2022-09-25T12:08:01.321Z,17.55
2022-09-25T12:10:43.960Z,17.82
2022-09-25T12:13:41.128Z,17.43
2022-09-25T12:16:22.976Z,17.66
2022-09-25T12:19:04.782Z,18.10
2022-09-25T12:21:47.828Z,18.75
2022-09-25T12:24:48.531Z,19.05
2022-09-25T12:27:30.266Z,19.18
2022-09-25T12:30:17.557Z,19.06
2022-09-25T12:32:50.032Z,18.76
2022-09-25T12:35:40.394Z,19.54
2022-09-25T12:38:18.694Z,18.73
2022-09-25T12:40:51.157Z,18.29
2022-09-25T12:43:27.982Z,18.57
2022-09-25T12:46:00.764Z,19.19
2022-09-25T12:48:37.530Z,19.27
2022-09-25T12:51:14.969Z,19.91
2022-09-25T12:54:07.023Z,19.53
2022-09-25T12:56:43.581Z,19.27
2022-09-25T12:59:13.876Z,18.00
2022-09-25T13:01:59.036Z,18.06
2022-09-25T13:04:36.416Z,17.42
2022-09-25T13:07:40.094Z,17.28
2022-09-25T13:10:28.460Z,16.35
2022-09-25T13:12:58.722Z,15.86
2022-09-25T13:15:29.922Z,16.01
2022-09-25T13:17:58.193Z,15.64
2022-09-25T13:20:31.300Z,15.74
2022-09-25T13:23:08.538Z,15.79
2022-09-25T13:26:00.796Z,15.94
2022-09-25T13:28:38.220Z,16.23
2022-09-25T13:31:09.113Z,15.84
2022-09-25T13:33:52.491Z,15.78
2022-09-25T13:36:25.170Z,16.18
2022-09-25T13:39:14.892Z,16.61
2022-09-25T13:41:55.368Z,16.91
2022-09-25T13:44:41.058Z,17.17
2022-09-25T13:47:25.649Z,17.13
2022-09-25T13:50:12.942Z,17.22
2022-09-25T13:52:39.597Z,16.73
2022-09-25T13:55:17.108Z,16.82
2022-09-25T13:58:01.818Z,16.79
2022-09-25T14:00:37.569Z,17.16
2022-09-25T14:03:05.465Z,17.41
2022-09-25T14:05:35.968Z,17.59
2022-09-25T14:08:13.945Z,17.74
2022-09-25T14:10:46.895Z,17.58
2022-09-25T14:13:16.570Z,17.34
2022-09-25T14:15:46.704Z,17.25
2022-09-25T14:18:41.914Z,17.43
2022-09-25T14:21:13.343Z,17.46
2022-09-25T14:23:56.710Z,17.63
2022-09-25T14:26:28.045Z,17.89
2022-09-25T14:28:59.589Z,17.54
2022-09-25T14:31:26.815Z,17.75
2022-09-25T14:34:20.201Z,17.88
2022-09-25T14:37:00.287Z,18.09
2022-09-25T14:39:39.135Z,18.19
2022-09-25T14:42:31.294Z,18.24
2022-09-25T14:45:31.033Z,17.69
2022-09-25T14:48:05.040Z,17.30
2022-09-25T14:50:44.680Z,16.87
2022-09-25T14:53:15.643Z,16.91
2022-09-25T14:55:46.475Z,17.14
2022-09-25T14:58:18.614Z,16.88
2022-09-25T15:00:52.896Z,17.13
2022-09-25T15:03:25.037Z,17.11
2022-09-25T15:05:51.518Z,17.01
2022-09-25T15:08:35.811Z,16.94
2022-09-25T15:11:25.657Z,16.82
2022-09-25T15:13:52.134Z,16.96
2022-09-25T15:16:44.519Z,16.97
2022-09-25T15:19:20.514Z,16.95
2022-09-25T15:21:47.519Z,16.98
2022-09-25T15:24:24.027Z,17.08
2022-09-25T15:27:03.597Z,17.00
2022-09-25T15:29:36.594Z,16.97
2022-09-25T15:32:05.105Z,16.90
2022-09-25T15:34:32.575Z,16.86
2022-09-25T15:37:32.696Z,16.79
2022-09-25T15:40:17.873Z,16.57
2022-09-25T15:42:48.351Z,16.51
2022-09-25T15:45:36.513Z,16.38
2022-09-25T15:48:33.779Z,16.45
2022-09-25T15:51:03.025Z,16.51
2022-09-25T15:53:44.009Z,16.53
2022-09-25T15:56:39.305Z,16.55
2022-09-25T15:59:18.359Z,16.55
2022-09-25T16:02:03.631Z,16.62
2022-09-25T16:04:49.314Z,16.58
2022-09-25T16:07:25.052Z,16.64
2022-09-25T16:09:53.839Z,16.63
2022-09-25T16:12:34.670Z,16.53
2022-09-25T16:15:26.270Z,16.46
2022-09-25T16:18:04.354Z,16.49
2022-09-25T16:20:41.799Z,16.24
2022-09-25T16:23:28.870Z,16.16
2022-09-25T16:25:58.739Z,16.05
2022-09-25T16:28:30.332Z,16.04
2022-09-25T16:31:00.975Z,16.09
2022-09-25T16:33:39.900Z,16.14
2022-09-25T16:36:17.715Z,16.13
2022-09-25T16:39:09.963Z,16.00
2022-09-25T16:41:55.682Z,15.89
2022-09-25T16:44:29.767Z,16.00
2022-09-25T16:46:56.376Z,15.95
2022-09-25T16:49:37.130Z,15.98
2022-09-25T16:52:20.656Z,15.82
2022-09-25T16:55:00.980Z,15.94
2022-09-25T16:57:41.299Z,15.78
2022-09-25T17:00:33.375Z,15.64
2022-09-25T17:03:00.470Z,15.69
2022-09-25T17:05:45.634Z,15.65
2022-09-25T17:08:32.419Z,15.58
2022-09-25T17:11:22.501Z,15.45
2022-09-25T17:14:23.077Z,15.30
2022-09-25T17:17:14.800Z,15.15
2022-09-25T17:20:01.821Z,15.17
2022-09-25T17:22:49.628Z,15.07
2022-09-25T17:25:48.177Z,15.02
2022-09-25T17:28:35.084Z,14.97
2022-09-25T17:31:22.278Z,14.96
2022-09-25T17:34:16.383Z,14.91
2022-09-25T17:37:03.211Z,14.77
2022-09-25T17:39:50.006Z,14.69
2022-09-25T17:42:39.952Z,14.71
2022-09-25T17:45:39.015Z,14.72
2022-09-25T17:48:30.958Z,14.72
2022-09-25T17:51:24.992Z,14.69
2022-09-25T17:54:13.304Z,14.73
2022-09-25T17:57:00.123Z,14.73
2022-09-25T17:59:49.392Z,14.64
2022-09-25T18:02:36.239Z,14.53
2022-09-25T18:05:24.118Z,14.36
2022-09-25T18:08:12.167Z,14.30
2022-09-25T18:10:58.975Z,14.29
2022-09-25T18:13:46.439Z,14.35
2022-09-25T18:16:33.326Z,14.40
2022-09-25T18:19:39.013Z,14.44
2022-09-25T18:22:28.058Z,14.49
2022-09-25T18:25:15.912Z,14.51
2022-09-25T18:28:03.396Z,14.44
2022-09-25T18:30:51.276Z,14.39
2022-09-25T18:33:38.080Z,14.33
2022-09-25T18:36:25.211Z,14.29
2022-09-25T18:39:14.966Z,14.26
2022-09-25T18:42:08.241Z,14.05
2022-09-25T18:44:55.501Z,14.01
2022-09-25T18:49:07.497Z,13.90
2022-09-25T18:51:55.929Z,13.88
2022-09-25T18:54:43.108Z,13.95
2022-09-25T18:57:29.924Z,14.02
2022-09-25T19:00:18.105Z,13.96
2022-09-25T19:03:05.153Z,13.96
2022-09-25T19:05:57.164Z,14.04
2022-09-25T19:08:53.660Z,14.04
2022-09-25T19:11:40.457Z,14.07
2022-09-25T19:14:29.602Z,14.03
2022-09-25T19:17:18.012Z,14.06
2022-09-25T19:20:06.071Z,14.02
2022-09-25T19:22:55.473Z,13.94
2022-09-25T19:25:52.261Z,13.75
2022-09-25T19:28:40.447Z,13.68
2022-09-25T19:31:28.480Z,13.63
2022-09-25T19:34:15.341Z,13.57
2022-09-25T19:37:02.556Z,13.50
2022-09-25T19:40:10.172Z,13.44
2022-09-25T19:43:01.015Z,13.37
2022-09-25T19:45:52.143Z,13.44
2022-09-25T19:48:39.015Z,13.43
2022-09-25T19:51:26.980Z,13.51
2022-09-25T19:54:15.144Z,13.61
2022-09-25T19:57:02.006Z,13.69
2022-09-25T19:59:50.839Z,13.66
2022-09-25T20:02:37.660Z,13.77
2022-09-25T20:05:24.669Z,13.83
2022-09-25T20:08:13.870Z,13.73
2022-09-25T20:11:09.630Z,13.76
2022-09-25T20:13:57.374Z,13.78
2022-09-25T20:16:44.970Z,13.84
2022-09-25T20:19:31.750Z,13.91
2022-09-25T20:22:18.535Z,13.96
2022-09-25T20:25:05.740Z,13.92
2022-09-25T20:27:52.712Z,13.92
2022-09-25T20:30:39.664Z,13.92
2022-09-25T20:33:34.435Z,13.94
2022-09-25T20:36:22.135Z,13.94
2022-09-25T20:39:08.931Z,13.96
2022-09-25T20:41:56.105Z,13.83
2022-09-25T20:44:43.573Z,13.75
2022-09-25T20:47:33.549Z,13.76
2022-09-25T20:50:21.262Z,13.85
2022-09-25T20:53:08.086Z,13.89
2022-09-25T20:55:55.083Z,13.87
2022-09-25T20:58:43.892Z,13.89
2022-09-25T21:01:34.707Z,13.87
2022-09-25T21:04:21.686Z,13.94
2022-09-25T21:07:10.951Z,13.99
2022-09-25T21:10:01.210Z,14.01
2022-09-25T21:12:47.965Z,13.95
2022-09-25T21:15:35.338Z,13.94
2022-09-25T21:18:25.021Z,13.97
2022-09-25T21:21:14.652Z,13.95
2022-09-25T21:24:02.567Z,13.90
2022-09-25T21:26:52.328Z,13.91
2022-09-25T21:29:39.127Z,13.86
2022-09-25T21:32:25.873Z,13.76
2022-09-25T21:35:12.766Z,13.87
2022-09-25T21:37:59.520Z,13.92
2022-09-25T21:40:46.874Z,13.96
2022-09-25T21:43:35.463Z,13.97
2022-09-25T21:46:23.403Z,13.96
2022-09-25T21:49:15.831Z,13.95
2022-09-25T21:52:02.601Z,13.87
2022-09-25T21:54:49.415Z,13.72
2022-09-25T21:57:36.183Z,13.48
2022-09-25T22:00:22.974Z,13.64
2022-09-25T22:03:09.833Z,13.47
2022-09-25T22:06:06.601Z,13.49
2022-09-25T22:08:59.214Z,13.46
2022-09-25T22:11:49.010Z,13.44
2022-09-25T22:14:36.490Z,13.50
2022-09-25T22:17:23.255Z,13.51
2022-09-25T22:20:11.096Z,13.50
2022-09-25T22:22:57.895Z,13.37
2022-09-25T22:25:44.735Z,13.39
2022-09-25T22:28:31.571Z,13.45
2022-09-25T22:31:24.656Z,13.53
2022-09-25T22:34:16.037Z,13.51
2022-09-25T22:37:05.391Z,13.33
2022-09-25T22:39:52.199Z,13.40
2022-09-25T22:42:38.971Z,13.47
2022-09-25T22:45:25.794Z,13.41
2022-09-25T22:48:12.613Z,13.28
2022-09-25T22:51:05.159Z,13.36
2022-09-25T22:53:53.842Z,13.18
2022-09-25T22:56:41.468Z,13.22
2022-09-25T22:59:28.366Z,13.25
2022-09-25T23:02:15.175Z,13.30
2022-09-25T23:05:06.349Z,13.29
2022-09-25T23:07:53.652Z,13.16
2022-09-25T23:11:02.989Z,13.20
2022-09-25T23:14:09.345Z,13.25
2022-09-25T23:16:57.134Z,13.15
2022-09-25T23:19:43.998Z,13.20
2022-09-25T23:22:30.820Z,12.99
2022-09-25T23:25:17.917Z,13.07
2022-09-25T23:28:04.807Z,12.94
2022-09-25T23:30:51.668Z,12.97
2022-09-25T23:33:40.018Z,13.07
2022-09-25T23:36:28.047Z,13.09
2022-09-25T23:39:18.473Z,13.10
2022-09-25T23:42:05.476Z,12.98
2022-09-25T23:44:52.688Z,12.91
2022-09-25T23:47:41.847Z,12.87
2022-09-25T23:50:28.653Z,12.88
2022-09-25T23:53:15.535Z,12.98
2022-09-25T23:56:10.066Z,13.03
2022-09-25T23:58:58.391Z,12.97
